Time;durP1;ratioP1;P1;durP2;ratioP2;P2;SDS_P1;SDS_P2;PMS_P1;PMS_P2;Temp;Humidity;BMP_temperature;BMP_pressure;BME280_temperature;BME280_humidity;BME280_pressure;Samples;Min_cycle;Max_cycle;Signal;HPM_P1;HPM_P2
2023/09/11 00:00:59;;;;;;;7.13;3.67;;;;;;;;;;5010029;28;20026;-79
2023/09/11 00:03:25;;;;;;;7.45;3.97;;;;;;;;;;5010103;28;20033;-79
2023/09/11 00:05:51;;;;;;;7.30;3.45;;;;;;;;;;5008188;28;20064;-79
2023/09/11 00:08:17;;;;;;;8.38;3.45;;;;;;;;;;5018779;28;20057;-79
2023/09/11 00:10:43;;;;;;;6.75;3.63;;;;;;;;;;5007040;28;20487;-79
2023/09/11 00:13:09;;;;;;;6.32;3.50;;;;;;;;;;5004730;28;20038;-79
2023/09/11 00:15:35;;;;;;;5.65;3.40;;;;;;;;;;4996722;28;20034;-79
2023/09/11 00:18:01;;;;;;;7.95;3.67;;;;;;;;;;5004733;28;20085;-79
2023/09/11 00:20:27;;;;;;;6.53;3.60;;;;;;;;;;5003764;28;20176;-79
2023/09/11 00:22:53;;;;;;;7.28;3.45;;;;;;;;;;5008624;28;20037;-79
2023/09/11 00:25:19;;;;;;;4.90;3.38;;;;;;;;;;5009147;28;20026;-79
2023/09/11 00:27:45;;;;;;;5.35;3.13;;;;;;;;;;5004854;28;20033;-79
2023/09/11 00:30:11;;;;;;;7.35;3.72;;;;;;;;;;5006414;28;20029;-79
2023/09/11 00:32:37;;;;;;;8.68;3.67;;;;;;;;;;4996420;28;20037;-79
2023/09/11 00:35:03;;;;;;;8.20;4.50;;;;;;;;;;5009140;28;20014;-79
2023/09/11 00:37:29;;;;;;;6.75;3.67;;;;;;;;;;5005943;28;20045;-79
2023/09/11 00:39:55;;;;;;;4.72;3.13;;;;;;;;;;5007294;28;20495;-79
2023/09/11 00:42:21;;;;;;;7.32;4.00;;;;;;;;;;4998500;28;20050;-79
2023/09/11 00:44:47;;;;;;;5.50;3.28;;;;;;;;;;5007542;28;20026;-79
2023/09/11 00:47:13;;;;;;;8.48;3.40;;;;;;;;;;5007102;28;20042;-79
2023/09/11 00:49:39;;;;;;;6.38;3.47;;;;;;;;;;5006647;28;20029;-79
2023/09/11 00:52:05;;;;;;;5.18;3.60;;;;;;;;;;5008877;28;20033;-79
2023/09/11 00:54:32;;;;;;;6.75;3.63;;;;;;;;;;5008647;28;20100;-79
2023/09/11 00:56:58;;;;;;;5.43;3.45;;;;;;;;;;5007195;28;20037;-79
2023/09/11 00:59:24;;;;;;;5.75;3.45;;;;;;;;;;5010655;28;20367;-79
2023/09/11 01:01:50;;;;;;;6.50;4.05;;;;;;;;;;5007695;28;20033;-79
2023/09/11 01:04:17;;;;;;;6.68;3.80;;;;;;;;;;4999742;28;20160;-79
2023/09/11 01:06:43;;;;;;;5.95;2.92;;;;;;;;;;5011546;28;20087;-78
2023/09/11 01:09:09;;;;;;;4.60;3.15;;;;;;;;;;5011572;28;20048;-78
2023/09/11 01:11:35;;;;;;;6.45;4.07;;;;;;;;;;5005527;28;20034;-79
2023/09/11 01:14:01;;;;;;;7.80;3.13;;;;;;;;;;5000611;28;20035;-78
2023/09/11 01:16:31;;;;;;;5.65;3.67;;;;;;;;;;5009660;28;20036;-79
2023/09/11 01:19:15;;;;;;;5.53;3.67;;;;;;;;;;5012862;28;20056;-78
2023/09/11 01:21:44;;;;;;;5.80;3.30;;;;;;;;;;5010621;28;20018;-79
2023/09/11 01:24:32;;;;;;;5.93;3.80;;;;;;;;;;5009712;28;20116;-79
2023/09/11 01:27:01;;;;;;;5.18;3.42;;;;;;;;;;5002946;28;20030;-79
2023/09/11 01:29:28;;;;;;;6.70;3.40;;;;;;;;;;5010511;28;20116;-79
2023/09/11 01:31:55;;;;;;;6.13;3.53;;;;;;;;;;5018615;28;20037;-79
2023/09/11 01:34:21;;;;;;;7.65;3.50;;;;;;;;;;4997525;28;20108;-79
2023/09/11 01:36:47;;;;;;;6.25;3.63;;;;;;;;;;5012030;28;20038;-79
2023/09/11 01:39:13;;;;;;;4.35;3.17;;;;;;;;;;5012016;28;20034;-79
2023/09/11 01:41:40;;;;;;;7.05;3.65;;;;;;;;;;5004457;28;20049;-79
2023/09/11 01:44:13;;;;;;;5.05;2.85;;;;;;;;;;5002573;28;20023;-78
2023/09/11 01:46:39;;;;;;;10.10;3.63;;;;;;;;;;5007744;28;20116;-78
2023/09/11 01:49:08;;;;;;;6.38;3.10;;;;;;;;;;5002850;28;20504;-79
2023/09/11 01:51:34;;;;;;;7.00;3.35;;;;;;;;;;4996760;28;20026;-79
2023/09/11 01:54:00;;;;;;;8.10;3.90;;;;;;;;;;5005669;28;20221;-79
2023/09/11 01:56:26;;;;;;;4.90;3.50;;;;;;;;;;5006085;28;20041;-79
2023/09/11 01:58:52;;;;;;;6.07;2.80;;;;;;;;;;5011219;28;20026;-78
2023/09/11 02:01:18;;;;;;;6.13;3.65;;;;;;;;;;5012580;28;20025;-79
2023/09/11 02:03:44;;;;;;;4.20;3.10;;;;;;;;;;5006134;28;20162;-79
2023/09/11 02:06:10;;;;;;;5.30;3.28;;;;;;;;;;5003348;28;20084;-79
2023/09/11 02:08:36;;;;;;;4.32;3.00;;;;;;;;;;5010640;28;20399;-78
2023/09/11 02:11:02;;;;;;;4.28;3.08;;;;;;;;;;5011744;28;20037;-79
2023/09/11 02:13:28;;;;;;;3.80;3.13;;;;;;;;;;5011389;28;20022;-79
2023/09/11 02:15:54;;;;;;;5.50;3.63;;;;;;;;;;5011499;28;20428;-78
2023/09/11 02:18:20;;;;;;;4.90;3.33;;;;;;;;;;5004754;28;20176;-78
2023/09/11 02:20:47;;;;;;;4.57;2.78;;;;;;;;;;4997437;28;20033;-78
2023/09/11 02:23:14;;;;;;;6.10;3.30;;;;;;;;;;5005240;28;20029;-78
2023/09/11 02:25:41;;;;;;;5.20;3.08;;;;;;;;;;5005510;28;20025;-79
2023/09/11 02:28:07;;;;;;;5.57;3.13;;;;;;;;;;5011298;28;20343;-78
2023/09/11 02:30:33;;;;;;;5.68;3.25;;;;;;;;;;5010068;28;20137;-79
2023/09/11 02:32:59;;;;;;;5.70;3.55;;;;;;;;;;5012771;28;20033;-79
2023/09/11 02:35:25;;;;;;;5.40;3.35;;;;;;;;;;5004565;28;20029;-78
2023/09/11 02:37:51;;;;;;;4.65;2.97;;;;;;;;;;5010631;28;20419;-78
2023/09/11 02:40:16;;;;;;;5.80;3.60;;;;;;;;;;5010269;28;20017;-78
2023/09/11 02:42:42;;;;;;;5.47;3.22;;;;;;;;;;5004863;28;20088;-79
2023/09/11 02:45:09;;;;;;;6.72;3.95;;;;;;;;;;5010932;28;20030;-79
2023/09/11 02:47:34;;;;;;;6.70;3.55;;;;;;;;;;5008803;28;20129;-78
2023/09/11 02:50:00;;;;;;;6.03;3.58;;;;;;;;;;5010351;28;20042;-78
2023/09/11 02:52:26;;;;;;;4.80;2.78;;;;;;;;;;5009359;28;20038;-78
2023/09/11 02:54:52;;;;;;;4.75;3.05;;;;;;;;;;5015248;28;20030;-78
2023/09/11 02:57:18;;;;;;;6.10;4.18;;;;;;;;;;5008676;28;20069;-79
2023/09/11 02:59:44;;;;;;;5.32;3.00;;;;;;;;;;5001987;28;20025;-78
2023/09/11 03:02:10;;;;;;;10.07;3.38;;;;;;;;;;5009716;28;20113;-79
2023/09/11 03:04:36;;;;;;;6.22;3.72;;;;;;;;;;5009846;28;20408;-79
2023/09/11 03:07:02;;;;;;;6.10;3.13;;;;;;;;;;5006893;28;20022;-78
2023/09/11 03:09:28;;;;;;;5.50;2.95;;;;;;;;;;5015018;28;20057;-79
2023/09/11 03:11:54;;;;;;;5.28;3.35;;;;;;;;;;5009472;28;20030;-79
2023/09/11 03:14:20;;;;;;;6.18;3.40;;;;;;;;;;5010151;28;20511;-78
2023/09/11 03:16:46;;;;;;;6.28;3.22;;;;;;;;;;5009113;28;20091;-78
2023/09/11 03:19:12;;;;;;;6.70;2.85;;;;;;;;;;4996572;28;20030;-78
2023/09/11 03:21:38;;;;;;;6.20;3.50;;;;;;;;;;4997481;28;20109;-79
2023/09/11 03:24:04;;;;;;;5.28;3.50;;;;;;;;;;5005588;28;20096;-79
2023/09/11 03:26:30;;;;;;;4.75;3.22;;;;;;;;;;5008468;28;20761;-78
2023/09/11 03:28:56;;;;;;;5.43;3.35;;;;;;;;;;4996001;28;20117;-78
2023/09/11 03:31:22;;;;;;;6.68;3.28;;;;;;;;;;4990446;28;20034;-79
2023/09/11 03:33:48;;;;;;;4.13;2.97;;;;;;;;;;5006205;28;20045;-78
2023/09/11 03:36:16;;;;;;;3.67;2.90;;;;;;;;;;5014204;28;20029;-78
2023/09/11 03:38:42;;;;;;;6.13;3.22;;;;;;;;;;4997038;28;20033;-78
2023/09/11 03:41:08;;;;;;;6.43;2.85;;;;;;;;;;4990674;28;20026;-78
2023/09/11 03:43:34;;;;;;;6.25;3.53;;;;;;;;;;4998407;28;20057;-79
2023/09/11 03:46:00;;;;;;;5.25;3.20;;;;;;;;;;5008725;28;20100;-78
2023/09/11 03:48:26;;;;;;;5.00;2.75;;;;;;;;;;5008305;28;20076;-78
2023/09/11 03:50:51;;;;;;;6.25;3.40;;;;;;;;;;4990121;28;20084;-78
2023/09/11 03:53:17;;;;;;;5.50;3.20;;;;;;;;;;4999729;28;20029;-79
2023/09/11 03:55:44;;;;;;;3.85;2.90;;;;;;;;;;5008526;28;20096;-78
2023/09/11 03:58:11;;;;;;;4.93;3.17;;;;;;;;;;5006608;28;20432;-79
2023/09/11 04:00:37;;;;;;;7.75;3.33;;;;;;;;;;5000054;28;20033;-79
2023/09/11 04:03:03;;;;;;;4.00;3.00;;;;;;;;;;4997618;28;20021;-79
2023/09/11 04:05:29;;;;;;;5.32;3.20;;;;;;;;;;5009018;28;20041;-78
2023/09/11 04:07:55;;;;;;;4.47;3.05;;;;;;;;;;5008329;28;20109;-79
2023/09/11 04:10:21;;;;;;;5.32;3.15;;;;;;;;;;5009050;28;20112;-78
2023/09/11 04:12:50;;;;;;;6.25;2.92;;;;;;;;;;5007325;28;20431;-79
2023/09/11 04:15:16;;;;;;;4.72;3.08;;;;;;;;;;5005723;28;20477;-83
2023/09/11 04:17:42;;;;;;;5.35;3.53;;;;;;;;;;5008975;28;20076;-83
2023/09/11 04:20:09;;;;;;;5.40;2.60;;;;;;;;;;5011196;28;21306;-82
2023/09/11 04:22:35;;;;;;;5.18;2.92;;;;;;;;;;5021556;28;20038;-83
2023/09/11 04:25:02;;;;;;;5.60;3.45;;;;;;;;;;5008423;28;20069;-82
2023/09/11 04:27:28;;;;;;;5.75;3.10;;;;;;;;;;5005931;28;20022;-83
2023/09/11 04:29:56;;;;;;;5.00;3.20;;;;;;;;;;4999455;28;20029;-83
2023/09/11 04:32:22;;;;;;;7.20;3.58;;;;;;;;;;5003425;28;20026;-83
2023/09/11 04:34:48;;;;;;;5.78;3.03;;;;;;;;;;4999259;28;20022;-81
2023/09/11 04:37:16;;;;;;;4.70;3.10;;;;;;;;;;5005747;28;20037;-80
2023/09/11 04:39:45;;;;;;;4.65;2.83;;;;;;;;;;5002640;28;20042;-85
2023/09/11 04:42:10;;;;;;;5.55;3.22;;;;;;;;;;4996782;28;20112;-80
2023/09/11 04:44:36;;;;;;;6.47;2.50;;;;;;;;;;5000279;28;20045;-83
2023/09/11 04:47:03;;;;;;;5.78;3.45;;;;;;;;;;4988881;28;20121;-82
2023/09/11 04:49:29;;;;;;;4.95;3.00;;;;;;;;;;4988988;28;20105;-81
2023/09/11 04:51:55;;;;;;;7.10;3.08;;;;;;;;;;4988863;28;20030;-79
2023/09/11 04:54:21;;;;;;;5.10;3.00;;;;;;;;;;4994276;28;20084;-81
2023/09/11 04:56:47;;;;;;;5.18;2.50;;;;;;;;;;5007539;28;20060;-81
2023/09/11 04:59:13;;;;;;;3.80;3.28;;;;;;;;;;4999886;28;20034;-81
2023/09/11 05:01:39;;;;;;;4.65;2.38;;;;;;;;;;5005576;28;20480;-81
2023/09/11 05:04:06;;;;;;;7.15;2.97;;;;;;;;;;5002073;28;20096;-81
2023/09/11 05:06:32;;;;;;;6.25;2.80;;;;;;;;;;5008023;28;20034;-82
2023/09/11 05:08:58;;;;;;;4.60;3.03;;;;;;;;;;5006776;28;20088;-81
2023/09/11 05:11:24;;;;;;;5.05;3.25;;;;;;;;;;5010930;28;20042;-80
2023/09/11 05:13:50;;;;;;;4.57;2.88;;;;;;;;;;5008759;28;20084;-81
2023/09/11 05:16:18;;;;;;;5.50;3.05;;;;;;;;;;5008114;28;20365;-81
2023/09/11 05:18:44;;;;;;;3.97;2.80;;;;;;;;;;5007436;28;20044;-81
2023/09/11 05:21:10;;;;;;;4.50;2.42;;;;;;;;;;5007036;28;20477;-80
2023/09/11 05:23:36;;;;;;;5.30;2.72;;;;;;;;;;5005903;28;20385;-80
2023/09/11 05:26:03;;;;;;;4.97;3.17;;;;;;;;;;4991397;28;20088;-80
2023/09/11 05:28:29;;;;;;;6.63;3.53;;;;;;;;;;5007566;28;20050;-80
2023/09/11 05:30:55;;;;;;;5.72;3.13;;;;;;;;;;5002432;28;20022;-80
2023/09/11 05:33:21;;;;;;;3.78;2.58;;;;;;;;;;5007949;28;20029;-81
2023/09/11 05:35:47;;;;;;;4.10;2.78;;;;;;;;;;4999945;28;20037;-80
2023/09/11 05:38:13;;;;;;;4.80;3.20;;;;;;;;;;4992073;28;20026;-81
2023/09/11 05:40:39;;;;;;;6.45;3.03;;;;;;;;;;4988735;28;20033;-80
2023/09/11 05:43:05;;;;;;;6.53;3.25;;;;;;;;;;5001930;28;20041;-81
2023/09/11 05:45:31;;;;;;;6.78;2.78;;;;;;;;;;4997128;28;20026;-81
2023/09/11 05:47:57;;;;;;;3.97;2.70;;;;;;;;;;4991609;28;20029;-81
2023/09/11 05:50:23;;;;;;;4.90;2.80;;;;;;;;;;5012019;28;20502;-80
2023/09/11 05:52:49;;;;;;;4.30;2.80;;;;;;;;;;5011047;28;20391;-81
2023/09/11 05:55:15;;;;;;;5.70;2.97;;;;;;;;;;5018176;28;20030;-80
2023/09/11 05:57:41;;;;;;;4.18;2.60;;;;;;;;;;5012061;28;20026;-81
2023/09/11 06:00:12;;;;;;;5.22;2.53;;;;;;;;;;5017532;28;20045;-81
2023/09/11 06:02:38;;;;;;;4.65;2.97;;;;;;;;;;5011563;28;20069;-81
2023/09/11 06:05:05;;;;;;;4.88;3.25;;;;;;;;;;5010353;28;20041;-80
2023/09/11 06:07:31;;;;;;;3.40;2.83;;;;;;;;;;5008993;28;20504;-81
2023/09/11 06:09:57;;;;;;;7.43;3.30;;;;;;;;;;5000287;28;20038;-81
2023/09/11 06:12:23;;;;;;;3.40;2.65;;;;;;;;;;4991780;28;20477;-81
2023/09/11 06:14:49;;;;;;;3.42;2.70;;;;;;;;;;5003222;28;20033;-81
2023/09/11 06:17:15;;;;;;;6.57;3.50;;;;;;;;;;4991202;28;20381;-80
2023/09/11 06:19:41;;;;;;;8.10;3.30;;;;;;;;;;4999199;28;20026;-81
2023/09/11 06:22:08;;;;;;;3.33;2.35;;;;;;;;;;4991376;28;20502;-81
2023/09/11 06:24:34;;;;;;;4.60;3.15;;;;;;;;;;5002359;28;20021;-81
2023/09/11 06:27:05;;;;;;;11.40;3.00;;;;;;;;;;4998731;28;20093;-81
2023/09/11 06:29:31;;;;;;;5.50;3.25;;;;;;;;;;4991384;28;20054;-80
2023/09/11 06:31:57;;;;;;;11.52;3.00;;;;;;;;;;4991239;28;20058;-81
2023/09/11 06:34:23;;;;;;;5.07;3.28;;;;;;;;;;5000707;28;20026;-81
2023/09/11 06:36:52;;;;;;;3.30;2.72;;;;;;;;;;5002332;28;20026;-80
2023/09/11 06:39:18;;;;;;;5.22;2.70;;;;;;;;;;5009878;28;20018;-81
2023/09/11 06:41:44;;;;;;;5.28;2.90;;;;;;;;;;4998052;28;20424;-81
2023/09/11 06:44:10;;;;;;;6.05;3.00;;;;;;;;;;4998854;28;20036;-81
2023/09/11 06:46:36;;;;;;;10.43;3.45;;;;;;;;;;5010590;28;20480;-81
2023/09/11 06:49:02;;;;;;;4.72;2.92;;;;;;;;;;5002135;28;20397;-81
2023/09/11 06:51:28;;;;;;;4.13;3.15;;;;;;;;;;5008290;28;20034;-81
2023/09/11 06:53:54;;;;;;;7.10;3.80;;;;;;;;;;5002625;28;20033;-81
2023/09/11 06:56:20;;;;;;;5.60;3.38;;;;;;;;;;4990486;28;20036;-81
2023/09/11 06:58:46;;;;;;;5.85;3.50;;;;;;;;;;4990334;28;20121;-81
2023/09/11 07:01:15;;;;;;;5.20;3.50;;;;;;;;;;5002654;28;20033;-80
2023/09/11 07:03:41;;;;;;;4.20;3.10;;;;;;;;;;5002501;28;20050;-81
2023/09/11 07:06:07;;;;;;;6.38;3.67;;;;;;;;;;5010018;28;20103;-81
2023/09/11 07:08:34;;;;;;;5.15;3.33;;;;;;;;;;5008705;28;20113;-81
2023/09/11 07:10:59;;;;;;;6.55;3.80;;;;;;;;;;5021961;28;20216;-80
2023/09/11 07:13:25;;;;;;;3.63;2.92;;;;;;;;;;5014076;28;20029;-81
2023/09/11 07:15:55;;;;;;;5.80;3.40;;;;;;;;;;5005223;28;20026;-81
2023/09/11 07:18:21;;;;;;;6.25;2.83;;;;;;;;;;4990543;28;20022;-80
2023/09/11 07:20:47;;;;;;;7.38;4.20;;;;;;;;;;5004134;28;20021;-81
2023/09/11 07:23:13;;;;;;;9.05;3.95;;;;;;;;;;5003285;28;20389;-81
2023/09/11 07:25:39;;;;;;;5.03;3.30;;;;;;;;;;4991904;28;20026;-80
2023/09/11 07:28:06;;;;;;;4.75;3.25;;;;;;;;;;4989834;28;20030;-82
2023/09/11 07:30:32;;;;;;;5.68;3.35;;;;;;;;;;5007783;28;20046;-81
2023/09/11 07:32:58;;;;;;;6.85;3.72;;;;;;;;;;5009501;28;20485;-82
2023/09/11 07:35:24;;;;;;;7.18;3.67;;;;;;;;;;5009285;28;20025;-82
2023/09/11 07:37:51;;;;;;;4.63;3.78;;;;;;;;;;5007977;28;20436;-82
2023/09/11 07:40:17;;;;;;;6.05;3.95;;;;;;;;;;4993582;28;20069;-81
2023/09/11 07:42:43;;;;;;;5.45;3.15;;;;;;;;;;4999410;28;20026;-81
2023/09/11 07:45:09;;;;;;;7.45;3.85;;;;;;;;;;5007502;28;20026;-81
2023/09/11 07:47:35;;;;;;;13.80;3.72;;;;;;;;;;5010859;28;20117;-81
2023/09/11 07:50:01;;;;;;;5.40;3.50;;;;;;;;;;5014131;28;20036;-81
2023/09/11 07:52:27;;;;;;;4.85;3.00;;;;;;;;;;5016799;28;20033;-81
2023/09/11 07:54:52;;;;;;;5.75;4.03;;;;;;;;;;5004190;28;20034;-84
2023/09/11 07:57:19;;;;;;;5.60;3.72;;;;;;;;;;4999949;28;20045;-84
2023/09/11 07:59:44;;;;;;;6.28;3.78;;;;;;;;;;5009320;28;20076;-84
2023/09/11 08:02:10;;;;;;;6.75;3.95;;;;;;;;;;5015963;28;20029;-83
2023/09/11 08:04:37;;;;;;;5.93;3.50;;;;;;;;;;5008155;28;20042;-84
2023/09/11 08:07:04;;;;;;;5.68;3.53;;;;;;;;;;5008495;28;20248;-84
2023/09/11 08:09:30;;;;;;;6.78;3.25;;;;;;;;;;5020136;28;20033;-79
2023/09/11 08:11:56;;;;;;;5.22;3.28;;;;;;;;;;5005376;28;20498;-83
2023/09/11 08:14:22;;;;;;;8.50;4.03;;;;;;;;;;5000338;28;20033;-85
2023/09/11 08:16:49;;;;;;;6.50;4.00;;;;;;;;;;4988963;28;20575;-86
2023/09/11 08:19:15;;;;;;;10.23;3.58;;;;;;;;;;5001955;28;20030;-83
2023/09/11 08:21:41;;;;;;;6.32;3.63;;;;;;;;;;5007651;28;20025;-85
2023/09/11 08:24:07;;;;;;;6.28;3.78;;;;;;;;;;5011714;28;20018;-87
2023/09/11 08:26:33;;;;;;;5.45;3.63;;;;;;;;;;5003913;28;20700;-86
2023/09/11 08:29:02;;;;;;;4.60;3.42;;;;;;;;;;5009701;28;20022;-83
2023/09/11 08:31:28;;;;;;;6.22;3.38;;;;;;;;;;5007111;28;20105;-82
2023/09/11 08:33:55;;;;;;;5.85;3.47;;;;;;;;;;4997472;28;20104;-83
2023/09/11 08:36:21;;;;;;;5.63;3.35;;;;;;;;;;4989863;28;20485;-84
2023/09/11 08:38:47;;;;;;;4.13;3.15;;;;;;;;;;4994169;28;20026;-82
2023/09/11 08:41:14;;;;;;;4.50;2.80;;;;;;;;;;5014942;28;20018;-85
2023/09/11 08:43:40;;;;;;;4.22;3.05;;;;;;;;;;5002691;28;20512;-84
2023/09/11 08:46:07;;;;;;;7.05;2.72;;;;;;;;;;4992726;28;20026;-76
2023/09/11 08:48:34;;;;;;;6.80;3.33;;;;;;;;;;5014428;28;20391;-80
2023/09/11 08:51:06;;;;;;;5.70;2.83;;;;;;;;;;4994354;28;20057;-81
2023/09/11 08:53:33;;;;;;;3.55;2.55;;;;;;;;;;4996327;28;20700;-80
2023/09/11 08:56:00;;;;;;;4.93;3.03;;;;;;;;;;4997865;28;20100;-80
2023/09/11 08:58:26;;;;;;;3.15;2.30;;;;;;;;;;4996289;28;20026;-80
2023/09/11 09:00:52;;;;;;;5.22;2.65;;;;;;;;;;4995911;28;20550;-80
2023/09/11 09:03:18;;;;;;;3.70;2.55;;;;;;;;;;4996695;28;20939;-81
2023/09/11 09:05:45;;;;;;;5.60;3.10;;;;;;;;;;5000479;28;20121;-80
2023/09/11 09:08:12;;;;;;;5.10;3.00;;;;;;;;;;4999583;28;20133;-80
2023/09/11 09:10:39;;;;;;;6.13;3.17;;;;;;;;;;4998184;28;20506;-80
2023/09/11 09:13:06;;;;;;;2.92;2.45;;;;;;;;;;4996477;28;20061;-80
2023/09/11 09:15:34;;;;;;;5.05;2.58;;;;;;;;;;4996571;28;20026;-80
2023/09/11 09:18:00;;;;;;;4.93;2.88;;;;;;;;;;4997028;28;20544;-80
2023/09/11 09:20:29;;;;;;;4.53;2.97;;;;;;;;;;4998832;28;20680;-80
2023/09/11 09:22:56;;;;;;;3.13;2.40;;;;;;;;;;5000905;28;20626;-80
2023/09/11 09:25:22;;;;;;;3.28;2.45;;;;;;;;;;5002206;28;20241;-80
2023/09/11 09:27:48;;;;;;;5.30;3.28;;;;;;;;;;5000748;28;20137;-80
2023/09/11 09:30:25;;;;;;;4.55;2.78;;;;;;;;;;5000561;28;20873;-80
2023/09/11 09:32:51;;;;;;;4.80;2.58;;;;;;;;;;5012530;28;20399;-80
2023/09/11 09:35:20;;;;;;;2.72;2.00;;;;;;;;;;5000884;28;20030;-80
2023/09/11 09:37:55;;;;;;;3.50;2.55;;;;;;;;;;5000395;28;20480;-81
2023/09/11 09:40:31;;;;;;;5.07;2.60;;;;;;;;;;5009965;28;20113;-80
2023/09/11 09:43:00;;;;;;;3.92;2.75;;;;;;;;;;5002410;28;20026;-80
2023/09/11 09:45:29;;;;;;;5.55;3.03;;;;;;;;;;5001621;28;20014;-80
2023/09/11 09:48:05;;;;;;;3.95;2.45;;;;;;;;;;5004516;28;20066;-81
2023/09/11 09:50:46;;;;;;;4.57;2.33;;;;;;;;;;4999788;28;20190;-81
2023/09/11 09:53:22;;;;;;;4.18;2.88;;;;;;;;;;5000236;28;20258;-81
2023/09/11 09:55:48;;;;;;;2.30;2.10;;;;;;;;;;5004450;28;20370;-81
2023/09/11 09:58:14;;;;;;;3.90;2.58;;;;;;;;;;4996679;28;20042;-81
2023/09/11 10:00:40;;;;;;;3.65;2.92;;;;;;;;;;5003521;28;20213;-81
2023/09/11 10:03:08;;;;;;;4.25;2.97;;;;;;;;;;5001937;28;20137;-81
2023/09/11 10:05:34;;;;;;;2.88;2.60;;;;;;;;;;4999933;28;20092;-81
2023/09/11 10:08:00;;;;;;;4.65;3.17;;;;;;;;;;5002063;28;20430;-81
2023/09/11 10:10:27;;;;;;;7.30;2.60;;;;;;;;;;5000833;28;20034;-81
2023/09/11 10:13:05;;;;;;;5.50;2.55;;;;;;;;;;5001629;28;20157;-81
2023/09/11 10:15:32;;;;;;;5.50;2.92;;;;;;;;;;5002238;28;20432;-80
2023/09/11 10:17:59;;;;;;;4.38;2.72;;;;;;;;;;5000202;28;20178;-81
2023/09/11 10:20:25;;;;;;;5.53;2.70;;;;;;;;;;5000403;28;20022;-81
2023/09/11 10:23:01;;;;;;;5.32;2.53;;;;;;;;;;4999388;28;20088;-81
2023/09/11 10:25:29;;;;;;;4.22;2.65;;;;;;;;;;5000209;28;20162;-80
2023/09/11 10:27:58;;;;;;;9.63;2.58;;;;;;;;;;5002533;28;20052;-84
2023/09/11 10:30:26;;;;;;;4.10;2.45;;;;;;;;;;5010675;28;20088;-84
2023/09/11 10:32:57;;;;;;;4.22;2.85;;;;;;;;;;5003132;28;20039;-84
2023/09/11 10:35:23;;;;;;;;;;;;;;;;;;5002661;28;20026;-84
2023/09/11 10:37:51;;;;;;;3.88;2.65;;;;;;;;;;5002918;28;19969;-84
2023/09/11 10:40:17;;;;;;;4.95;3.05;;;;;;;;;;5000816;28;20379;-86
2023/09/11 10:42:44;;;;;;;9.27;2.58;;;;;;;;;;5001767;28;20064;-80
2023/09/11 10:45:29;;;;;;;6.10;3.13;;;;;;;;;;5004183;28;20441;-79
2023/09/11 10:47:55;;;;;;;4.15;2.90;;;;;;;;;;4997914;28;20104;-79
2023/09/11 10:50:25;;;;;;;5.72;3.28;;;;;;;;;;5001280;28;20041;-81
2023/09/11 10:52:55;;;;;;;5.10;3.17;;;;;;;;;;5002843;28;20503;-81
2023/09/11 10:55:23;;;;;;;12.93;2.92;;;;;;;;;;4996546;28;20029;-80
2023/09/11 10:57:50;;;;;;;3.83;2.90;;;;;;;;;;5018313;28;20038;-79
2023/09/11 11:00:17;;;;;;;7.32;2.95;;;;;;;;;;5006963;28;20057;-78
2023/09/11 11:02:43;;;;;;;3.85;2.67;;;;;;;;;;5010361;28;20028;-79
2023/09/11 11:05:15;;;;;;;4.32;2.70;;;;;;;;;;5011861;28;20045;-80
2023/09/11 11:07:42;;;;;;;4.35;3.13;;;;;;;;;;5010153;28;20018;-80
2023/09/11 11:10:14;;;;;;;3.25;2.78;;;;;;;;;;5010743;28;20025;-78
2023/09/11 11:12:42;;;;;;;4.63;3.00;;;;;;;;;;5014717;28;20048;-82
2023/09/11 11:15:21;;;;;;;5.20;2.60;;;;;;;;;;5010356;28;20018;-84
2023/09/11 11:17:47;;;;;;;6.53;3.22;;;;;;;;;;5019215;28;20026;-84
2023/09/11 11:20:17;;;;;;;4.50;3.20;;;;;;;;;;5013633;28;20028;-84
2023/09/11 11:22:46;;;;;;;7.85;3.45;;;;;;;;;;5006623;28;20072;-84
2023/09/11 11:25:12;;;;;;;4.50;3.03;;;;;;;;;;4997953;28;20197;-81
2023/09/11 11:27:39;;;;;;;3.85;2.72;;;;;;;;;;4988406;28;20128;-79
2023/09/11 11:30:05;;;;;;;8.80;3.15;;;;;;;;;;4995878;28;20030;-78
2023/09/11 11:32:33;;;;;;;4.50;2.85;;;;;;;;;;4996961;28;20036;-78
2023/09/11 11:35:01;;;;;;;6.47;3.40;;;;;;;;;;4995840;28;20045;-79
2023/09/11 11:37:27;;;;;;;3.85;2.75;;;;;;;;;;4999850;28;20026;-78
2023/09/11 11:39:54;;;;;;;4.57;3.05;;;;;;;;;;4999459;28;20053;-78
2023/09/11 11:42:20;;;;;;;5.43;3.47;;;;;;;;;;4998797;28;20034;-78
2023/09/11 11:44:47;;;;;;;3.92;2.67;;;;;;;;;;5002454;28;20044;-79
2023/09/11 11:47:13;;;;;;;4.72;2.90;;;;;;;;;;4997796;28;20034;-79
2023/09/11 11:49:39;;;;;;;4.43;2.90;;;;;;;;;;4999644;28;20037;-78
2023/09/11 11:52:06;;;;;;;3.50;2.60;;;;;;;;;;4998150;28;20026;-79
2023/09/11 11:54:33;;;;;;;4.43;2.78;;;;;;;;;;5003448;28;20034;-81
2023/09/11 11:57:00;;;;;;;3.20;2.63;;;;;;;;;;5000789;28;20392;-80
2023/09/11 11:59:34;;;;;;;6.60;3.30;;;;;;;;;;4997886;28;20030;-80
2023/09/11 12:02:00;;;;;;;5.45;2.75;;;;;;;;;;4998461;28;20026;-80
2023/09/11 12:04:26;;;;;;;3.15;2.28;;;;;;;;;;4997511;28;20069;-80
2023/09/11 12:06:57;;;;;;;3.53;2.60;;;;;;;;;;5001114;28;20065;-80
2023/09/11 12:09:23;;;;;;;3.58;2.67;;;;;;;;;;5004475;28;20480;-80
2023/09/11 12:11:50;;;;;;;7.85;2.25;;;;;;;;;;4997216;28;20084;-79
2023/09/11 12:14:17;;;;;;;5.10;2.85;;;;;;;;;;5004938;28;20030;-79
2023/09/11 12:16:43;;;;;;;6.80;2.88;;;;;;;;;;5001307;28;20034;-80
2023/09/11 12:19:09;;;;;;;6.47;2.22;;;;;;;;;;5002115;28;20106;-81
2023/09/11 12:21:35;;;;;;;6.15;2.83;;;;;;;;;;4998064;28;20543;-81
2023/09/11 12:24:03;;;;;;;5.57;3.03;;;;;;;;;;4999007;28;20030;-81
2023/09/11 12:26:29;;;;;;;4.15;2.28;;;;;;;;;;5000947;28;20480;-81
2023/09/11 12:28:56;;;;;;;4.20;2.92;;;;;;;;;;4998435;28;20030;-81
2023/09/11 12:31:22;;;;;;;4.88;2.83;;;;;;;;;;5000426;28;20069;-83
2023/09/11 12:33:55;;;;;;;3.58;2.60;;;;;;;;;;4989197;28;20038;-81
2023/09/11 12:36:24;;;;;;;6.55;3.28;;;;;;;;;;4995599;28;20041;-82
2023/09/11 12:38:50;;;;;;;2.78;2.28;;;;;;;;;;5001101;28;20030;-79
2023/09/11 12:41:18;;;;;;;3.78;2.38;;;;;;;;;;4997821;28;20488;-80
2023/09/11 12:43:44;;;;;;;2.92;2.22;;;;;;;;;;4998299;28;20481;-79
2023/09/11 12:46:11;;;;;;;4.90;2.33;;;;;;;;;;4995632;28;20075;-78
2023/09/11 12:48:40;;;;;;;6.85;2.85;;;;;;;;;;4999020;28;20042;-78
2023/09/11 12:51:06;;;;;;;3.58;2.35;;;;;;;;;;4995203;28;20064;-78
2023/09/11 12:53:32;;;;;;;3.53;2.45;;;;;;;;;;5001827;28;20604;-84
2023/09/11 12:55:58;;;;;;;6.22;2.80;;;;;;;;;;4999746;28;20116;-78
2023/09/11 12:58:24;;;;;;;3.42;2.13;;;;;;;;;;5012023;28;20033;-78
2023/09/11 13:00:50;;;;;;;4.03;2.55;;;;;;;;;;5017433;28;20026;-77
2023/09/11 13:03:16;;;;;;;2.40;2.08;;;;;;;;;;5012337;28;20045;-75
2023/09/11 13:05:43;;;;;;;3.03;2.28;;;;;;;;;;5010613;28;20053;-79
2023/09/11 13:08:09;;;;;;;3.50;2.33;;;;;;;;;;5010130;28;20033;-75
2023/09/11 13:10:35;;;;;;;3.55;2.17;;;;;;;;;;5009823;28;20488;-75
2023/09/11 13:13:03;;;;;;;3.33;2.50;;;;;;;;;;5010404;28;20038;-79
2023/09/11 13:15:29;;;;;;;4.40;2.58;;;;;;;;;;5011477;28;20066;-82
2023/09/11 13:17:55;;;;;;;8.10;2.75;;;;;;;;;;5015402;28;20021;-84
2023/09/11 13:20:21;;;;;;;5.00;2.47;;;;;;;;;;5002329;28;20052;-78
2023/09/11 13:22:50;;;;;;;5.30;2.65;;;;;;;;;;5011858;28;20056;-83
2023/09/11 13:25:16;;;;;;;4.90;2.40;;;;;;;;;;5009717;28;20088;-80
2023/09/11 13:27:42;;;;;;;4.32;2.60;;;;;;;;;;4999274;28;20399;-79
2023/09/11 13:30:08;;;;;;;3.42;2.58;;;;;;;;;;5014461;28;20037;-79
2023/09/11 13:32:35;;;;;;;5.43;2.50;;;;;;;;;;5007147;28;20467;-77
2023/09/11 13:35:01;;;;;;;2.75;2.45;;;;;;;;;;5011970;28;20033;-78
2023/09/11 13:37:27;;;;;;;3.00;2.08;;;;;;;;;;5013983;28;20327;-78
2023/09/11 13:39:53;;;;;;;4.05;2.58;;;;;;;;;;5004428;28;20034;-75
2023/09/11 13:42:23;;;;;;;3.67;2.28;;;;;;;;;;5008235;28;20484;-78
2023/09/11 13:44:51;;;;;;;2.97;2.38;;;;;;;;;;5006893;28;20062;-78
2023/09/11 13:47:16;;;;;;;3.15;2.20;;;;;;;;;;5012117;28;20025;-76
2023/09/11 13:49:43;;;;;;;4.22;2.55;;;;;;;;;;5012558;28;20503;-76
2023/09/11 13:52:09;;;;;;;4.65;2.83;;;;;;;;;;5002551;28;20672;-76
2023/09/11 13:54:34;;;;;;;5.43;3.15;;;;;;;;;;5009264;28;20034;-74
2023/09/11 13:57:07;;;;;;;4.30;2.55;;;;;;;;;;5010064;28;20033;-74
2023/09/11 13:59:33;;;;;;;2.75;1.90;;;;;;;;;;5009710;28;20719;-74
2023/09/11 14:01:59;;;;;;;3.67;2.17;;;;;;;;;;5005413;28;20029;-75
2023/09/11 14:04:25;;;;;;;3.25;2.40;;;;;;;;;;4999175;28;20508;-77
2023/09/11 14:06:51;;;;;;;3.97;2.63;;;;;;;;;;5007816;28;20030;-76
2023/09/11 14:09:17;;;;;;;4.40;2.40;;;;;;;;;;5005848;28;20038;-77
2023/09/11 14:11:43;;;;;;;3.67;2.55;;;;;;;;;;5015823;28;20025;-76
2023/09/11 14:14:09;;;;;;;4.88;2.88;;;;;;;;;;5004178;28;20099;-76
2023/09/11 14:16:35;;;;;;;4.55;2.35;;;;;;;;;;5008601;28;20018;-75
2023/09/11 14:19:01;;;;;;;3.92;2.10;;;;;;;;;;5002736;28;20053;-77
2023/09/11 14:21:27;;;;;;;5.10;2.63;;;;;;;;;;5007223;28;20099;-76
2023/09/11 14:23:53;;;;;;;3.45;2.53;;;;;;;;;;5004538;28;21933;-77
2023/09/11 14:26:22;;;;;;;3.70;2.30;;;;;;;;;;4999068;28;20030;-76
2023/09/11 14:28:48;;;;;;;2.70;2.22;;;;;;;;;;5004258;28;20018;-75
2023/09/11 14:31:15;;;;;;;4.25;2.30;;;;;;;;;;5013043;28;20394;-75
2023/09/11 14:33:41;;;;;;;3.45;2.13;;;;;;;;;;5013582;28;20046;-76
2023/09/11 14:36:07;;;;;;;3.53;2.33;;;;;;;;;;5006142;28;20052;-75
2023/09/11 14:38:33;;;;;;;3.70;2.55;;;;;;;;;;5012694;28;20120;-77
2023/09/11 14:40:59;;;;;;;2.40;2.00;;;;;;;;;;5009822;28;20184;-76